Time;durP1;ratioP1;P1;durP2;ratioP2;P2;SDS_P1;SDS_P2;PMS_P1;PMS_P2;Temp;Humidity;BMP_temperature;BMP_pressure;BME280_temperature;BME280_humidity;BME280_pressure;Samples;Min_cycle;Max_cycle;Signal;HPM_P1;HPM_P2
2023/08/05 00:00:11;;;;;;;3.33;2.83;;;26.60;52.20;;;;;;5105226;27;87722;-61
2023/08/05 00:02:39;;;;;;;6.27;2.63;;;26.60;52.30;;;;;;5097642;27;87833;-61
2023/08/05 00:05:09;;;;;;;3.10;2.70;;;26.60;54.20;;;;;;5106162;27;88513;-61
2023/08/05 00:07:37;;;;;;;5.50;2.73;;;26.50;54.40;;;;;;5098388;27;89054;-61
2023/08/05 00:10:06;;;;;;;3.53;2.40;;;26.60;53.50;;;;;;5107434;27;87710;-61
2023/08/05 00:12:34;;;;;;;3.03;2.60;;;26.60;54.90;;;;;;5092572;27;87564;-61
2023/08/05 00:15:04;;;;;;;6.13;3.00;;;26.60;57.10;;;;;;5083474;27;88591;-61
2023/08/05 00:17:33;;;;;;;5.03;3.10;;;26.50;56.10;;;;;;5093917;27;87595;-62
2023/08/05 00:20:01;;;;;;;3.87;2.53;;;26.50;56.60;;;;;;5090788;27;87489;-61
2023/08/05 00:22:29;;;;;;;3.00;2.47;;;26.50;59.50;;;;;;5063728;27;87556;-61
2023/08/05 00:24:58;;;;;;;4.40;2.60;;;26.50;57.40;;;;;;5094430;27;89881;-61
2023/08/05 00:27:26;;;;;;;3.50;2.57;;;26.50;58.60;;;;;;5090089;27;90038;-61
2023/08/05 00:29:54;;;;;;;5.87;2.80;;;26.50;64.20;;;;;;5101076;27;89937;-61
2023/08/05 00:32:24;;;;;;;3.33;2.67;;;26.50;64.10;;;;;;5083659;27;87635;-61
2023/08/05 00:34:52;;;;;;;3.77;2.73;;;26.50;65.00;;;;;;5082550;27;88416;-61
2023/08/05 00:37:20;;;;;;;3.90;2.00;;;26.50;65.80;;;;;;5088337;27;89527;-61
2023/08/05 00:39:49;;;;;;;4.07;2.43;;;26.50;67.60;;;;;;5090082;27;89264;-61
2023/08/05 00:42:19;;;;;;;3.37;2.03;;;26.50;68.80;;;;;;5082716;27;87197;-62
2023/08/05 00:44:47;;;;;;;2.73;2.33;;;26.50;54.60;;;;;;5062833;27;90673;-61
2023/08/05 00:47:17;;;;;;;3.77;2.33;;;26.50;57.80;;;;;;5062103;27;89133;-61
2023/08/05 00:49:48;;;;;;;2.93;2.33;;;26.40;56.80;;;;;;5062109;27;88608;-61
2023/08/05 00:52:17;;;;;;;3.27;2.27;;;26.40;59.10;;;;;;5065452;27;87995;-62
2023/08/05 00:54:45;;;;;;;2.80;2.20;;;26.50;62.50;;;;;;5069032;27;89467;-61
2023/08/05 00:57:13;;;;;;;2.67;1.97;;;26.40;73.50;;;;;;5079148;27;89267;-61
2023/08/05 00:59:42;;;;;;;2.10;1.50;;;;;;;;;;5076883;27;88837;-61
2023/08/05 01:02:10;;;;;;;3.33;1.63;;;26.30;81.30;;;;;;5077834;27;88217;-62
2023/08/05 01:04:39;;;;;;;1.80;1.53;;;;;;;;;;5075460;27;89513;-61
2023/08/05 01:07:09;;;;;;;2.83;1.77;;;;;;;;;;5082646;27;89234;-62
2023/08/05 01:09:37;;;;;;;2.60;1.63;;;;;;;;;;5094726;27;88690;-61
2023/08/05 01:12:07;;;;;;;3.50;1.70;;;;;;;;;;5098487;27;87578;-61
2023/08/05 01:14:35;;;;;;;2.80;1.63;;;;;;;;;;5090241;27;89297;-61
2023/08/05 01:17:07;;;;;;;2.30;1.60;;;;;;;;;;5100433;27;90059;-61
2023/08/05 01:19:35;;;;;;;2.60;1.87;;;;;;;;;;5083212;27;89760;-61
2023/08/05 01:22:05;;;;;;;2.60;1.50;;;;;;;;;;5081839;27;88543;-61
2023/08/05 01:24:36;;;;;;;2.10;1.90;;;;;;;;;;5085723;27;89662;-61
2023/08/05 01:27:06;;;;;;;1.60;1.50;;;;;;;;;;5078956;27;87705;-61
2023/08/05 01:29:35;;;;;;;2.47;1.40;;;;;;;;;;5084014;27;89367;-61
2023/08/05 01:32:03;;;;;;;2.37;1.57;;;;;;;;;;5075777;27;87472;-61
2023/08/05 01:34:32;;;;;;;3.23;2.10;;;;;;;;;;5080399;27;89714;-61
2023/08/05 01:37:00;;;;;;;2.90;1.60;;;;;;;;;;5084676;27;88752;-61
2023/08/05 01:39:29;;;;;;;1.97;1.50;;;;;;;;;;5085289;27;88572;-61
2023/08/05 01:41:57;;;;;;;2.63;1.40;;;;;;;;;;5073724;27;87967;-61
2023/08/05 01:44:27;;;;;;;3.27;1.80;;;;;;;;;;5078572;27;89459;-61
2023/08/05 01:46:56;;;;;;;1.97;1.30;;;;;;;;;;5082945;27;89252;-61
2023/08/05 01:49:24;;;;;;;4.63;2.20;;;;;;;;;;5076398;27;89226;-61
2023/08/05 01:51:53;;;;;;;3.27;2.17;;;;;;;;;;5097140;27;87553;-61
2023/08/05 01:54:21;;;;;;;2.57;2.23;;;;;;;;;;5080944;27;89704;-61
2023/08/05 01:56:50;;;;;;;2.73;2.37;;;;;;;;;;5075765;27;89480;-61
2023/08/05 01:59:19;;;;;;;4.87;2.50;;;;;;;;;;5070238;27;89225;-61
2023/08/05 02:01:49;;;;;;;3.33;2.70;;;;;;;;;;5071506;27;88014;-61
2023/08/05 02:04:17;;;;;;;3.80;2.70;;;;;;;;;;5068301;27;90602;-61
2023/08/05 02:06:46;;;;;;;4.80;2.90;;;;;;;;;;5068007;27;90214;-61
2023/08/05 02:09:15;;;;;;;4.17;2.40;;;;;;;;;;5078134;27;89935;-62
2023/08/05 02:11:44;;;;;;;4.23;3.33;;;;;;;;;;5080662;27;87650;-61
2023/08/05 02:14:12;;;;;;;4.70;3.07;;;;;;;;;;5089536;27;89752;-62
2023/08/05 02:16:41;;;;;;;4.70;2.77;;;;;;;;;;5090776;27;91687;-62
2023/08/05 02:19:11;;;;;;;4.00;2.77;;;;;;;;;;5088794;27;90004;-61
2023/08/05 02:21:40;;;;;;;4.37;3.33;;;;;;;;;;5082855;27;87710;-61
2023/08/05 02:24:09;;;;;;;5.80;3.50;;;;;;;;;;5099710;27;89571;-61
2023/08/05 02:26:38;;;;;;;5.80;3.87;;;;;;;;;;5101483;27;89133;-61
2023/08/05 02:29:07;;;;;;;6.20;4.30;;;;;;;;;;5080836;27;88826;-61
2023/08/05 02:31:36;;;;;;;5.73;3.57;;;;;;;;;;5074743;27;87965;-62
2023/08/05 02:34:04;;;;;;;6.23;4.43;;;;;;;;;;5078867;27;91202;-61
2023/08/05 02:36:34;;;;;;;4.90;4.17;;;;;;;;;;5076193;27;89132;-61
2023/08/05 02:39:03;;;;;;;5.90;4.23;;;;;;;;;;5069094;27;88876;-61
2023/08/05 02:41:32;;;;;;;6.57;3.60;;;;;;;;;;5083265;27;87619;-60
2023/08/05 02:44:00;;;;;;;7.60;4.60;;;;;;;;;;5087925;27;89610;-61
2023/08/05 02:46:29;;;;;;;10.57;4.77;;;;;;;;;;5082125;27;88282;-61
2023/08/05 02:48:58;;;;;;;6.70;4.60;;;;;;;;;;5094294;27;88852;-61
2023/08/05 02:51:27;;;;;;;6.67;4.67;;;;;;;;;;5084656;27;87682;-62
2023/08/05 02:53:57;;;;;;;6.00;4.60;;;;;;;;;;5082575;27;89643;-61
2023/08/05 02:56:25;;;;;;;8.33;5.10;;;;;;;;;;5082171;27;92147;-61
2023/08/05 02:58:54;;;;;;;7.17;4.80;;;;;;;;;;5081782;27;89847;-61
2023/08/05 03:01:23;;;;;;;6.87;4.60;;;;;;;;;;5079881;27;87761;-61
2023/08/05 03:03:52;;;;;;;8.03;5.07;;;;;;;;;;5080175;27;89854;-61
2023/08/05 03:06:21;;;;;;;6.40;4.73;;;;;;;;;;5080742;27;88162;-61
2023/08/05 03:08:49;;;;;;;8.00;4.93;;;;;;;;;;5080176;27;88787;-61
2023/08/05 03:11:19;;;;;;;8.97;4.47;;;;;;;;;;5081006;27;87385;-61
2023/08/05 03:13:47;;;;;;;8.90;5.43;;;;;;;;;;5082032;27;89773;-61
2023/08/05 03:16:16;;;;;;;9.40;5.53;;;;;;;;;;5080118;27;89163;-61
2023/08/05 03:18:45;;;;;;;8.17;6.23;;;;;;;;;;5091645;27;89520;-61
2023/08/05 03:21:13;;;;;;;6.93;5.07;;;;;;;;;;5085612;27;88133;-60
2023/08/05 03:23:42;;;;;;;9.00;5.23;;;;;;;;;;5097830;27;89412;-61
2023/08/05 03:26:11;;;;;;;10.07;5.63;;;;;;;;;;5075506;27;89020;-61
2023/08/05 03:28:41;;;;;;;6.47;5.10;;;;;;;;;;5069810;27;88879;-61
2023/08/05 03:31:10;;;;;;;8.67;5.60;;;;;;;;;;5089043;27;87650;-61
2023/08/05 03:33:38;;;;;;;10.33;6.07;;;;;;;;;;5075740;27;88368;-61
2023/08/05 03:36:07;;;;;;;9.57;5.90;;;;;;;;;;5078063;27;89175;-61
2023/08/05 03:38:36;;;;;;;9.47;5.93;;;;;;;;;;5081606;27;88902;-61
2023/08/05 03:41:05;;;;;;;9.10;5.60;;;;;;;;;;5092013;27;87476;-61
2023/08/05 03:43:34;;;;;;;8.17;5.87;;;;;;;;;;5083513;27;89717;-61
2023/08/05 03:46:03;;;;;;;8.63;5.57;;;;;;;;;;5077826;27;90115;-61
2023/08/05 03:48:32;;;;;;;10.67;5.37;;;;;;;;;;5089788;27;89467;-61
2023/08/05 03:51:01;;;;;;;10.07;6.03;;;;;;;;;;5083619;27;87524;-61
2023/08/05 03:53:30;;;;;;;7.33;5.30;;;;;;;;;;5088840;27;90588;-61
2023/08/05 03:55:58;;;;;;;7.80;5.53;;;;;;;;;;5093003;27;88852;-61
2023/08/05 03:58:27;;;;;;;7.70;4.87;;;;;;;;;;5084695;27;88844;-60
2023/08/05 04:00:56;;;;;;;8.83;4.57;;;;;;;;;;5093321;27;88232;-61
2023/08/05 04:03:25;;;;;;;7.53;5.33;;;;;;;;;;5082761;27;89372;-63
2023/08/05 04:05:54;;;;;;;8.60;5.20;;;;;;;;;;5097255;27;88930;-61
2023/08/05 04:08:23;;;;;;;7.10;5.00;;;;;;;;;;5100250;27;89058;-61
2023/08/05 04:10:52;;;;;;;6.40;5.10;;;;;;;;;;5094865;27;88030;-61
2023/08/05 04:13:24;;;;;;;7.90;4.93;;;;;;;;;;5083827;27;89195;-61
2023/08/05 04:15:53;;;;;;;6.47;4.63;;;;;;;;;;5091253;27;89134;-61
2023/08/05 04:18:22;;;;;;;6.60;4.77;;;;;;;;;;5101738;27;88740;-61
2023/08/05 04:20:53;;;;;;;8.90;5.27;;;;;;;;;;5087939;27;87928;-61
2023/08/05 04:23:23;;;;;;;6.70;4.83;;;;;;;;;;5091374;27;88163;-61
2023/08/05 04:25:52;;;;;;;9.07;5.07;;;;;;;;;;5090588;27;89162;-61
2023/08/05 04:28:21;;;;;;;9.47;5.27;;;;;;;;;;5072837;27;88472;-61
2023/08/05 04:30:50;;;;;;;8.83;5.40;;;;;;;;;;5064469;27;87659;-62
2023/08/05 04:33:18;;;;;;;7.50;5.07;;;;;;;;;;5076410;27;89684;-61
2023/08/05 04:35:47;;;;;;;12.90;6.00;;;;;;;;;;5076087;27;90060;-61
2023/08/05 04:38:17;;;;;;;7.07;5.23;;;;;;;;;;5071853;27;89885;-61
2023/08/05 04:40:45;;;;;;;11.27;5.87;;;;;;;;;;5078826;27;87503;-61
2023/08/05 04:43:14;;;;;;;9.33;5.40;;;;;;;;;;5074154;27;90051;-61
2023/08/05 04:45:42;;;;;;;5.73;4.30;;;;;;;;;;5083566;27;89140;-61
2023/08/05 04:48:11;;;;;;;6.13;4.70;;;;;;;;;;5084778;27;87802;-62
2023/08/05 04:50:40;;;;;;;8.90;6.10;;;;;;;;;;5089905;27;87583;-61
2023/08/05 04:53:09;;;;;;;7.73;4.97;;;;;;;;;;5082975;27;89175;-61
2023/08/05 04:55:40;;;;;;;10.90;6.30;;;;;;;;;;5087884;27;89218;-61
2023/08/05 04:58:10;;;;;;;7.43;5.50;;;;;;;;;;5102980;27;88937;-61
2023/08/05 05:00:39;;;;;;;7.67;5.40;;;;;;;;;;5103447;27;87860;-61
2023/08/05 05:03:07;;;;;;;9.33;5.80;;;;;;;;;;5103754;27;89283;-61
2023/08/05 05:05:36;;;;;;;8.93;5.47;;;;;;;;;;5097205;27;88894;-61
2023/08/05 05:08:05;;;;;;;9.33;5.50;;;;;;;;;;5090579;27;88712;-61
2023/08/05 05:10:33;;;;;;;6.83;4.83;;;;;;;;;;5082766;27;87613;-61
2023/08/05 05:13:03;;;;;;;7.27;4.57;;;;;;;;;;5083436;27;89672;-61
2023/08/05 05:15:32;;;;;;;8.63;5.33;;;;;;;;;;5098970;27;89094;-61
2023/08/05 05:18:01;;;;;;;9.27;5.63;;;;;;;;;;5099924;27;88863;-61
2023/08/05 05:20:29;;;;;;;7.53;5.10;;;;;;;;;;5081616;27;87467;-60
2023/08/05 05:22:58;;;;;;;7.77;5.17;;;;;;;;;;5077572;27;89176;-61
2023/08/05 05:25:26;;;;;;;5.50;4.60;;;;;;;;;;5075339;27;90112;-60
2023/08/05 05:27:55;;;;;;;6.97;5.33;;;;;;;;;;5083991;27;89776;-61
2023/08/05 05:30:25;;;;;;;7.70;5.00;;;;;;;;;;5078790;27;87622;-61
2023/08/05 05:32:54;;;;;;;7.17;4.97;;;;;;;;;;5066729;27;89756;-61
2023/08/05 05:35:23;;;;;;;9.10;4.80;;;;;;;;;;5061771;27;88004;-61
2023/08/05 05:37:52;;;;;;;6.43;4.90;;;;;;;;;;5061329;27;88813;-61
2023/08/05 05:40:21;;;;;;;5.97;4.00;;;;;;;;;;5062566;27;88033;-61
2023/08/05 05:42:49;;;;;;;6.33;4.17;;;;;;;;;;5079873;27;89611;-61
2023/08/05 05:45:18;;;;;;;7.23;4.87;;;;;;;;;;5079132;27;89147;-61
2023/08/05 05:47:48;;;;;;;5.60;3.73;;;;;;;;;;5064876;27;88935;-61
2023/08/05 05:50:19;;;;;;;5.50;4.07;;;;;;;;;;5060995;27;87795;-61
2023/08/05 05:52:48;;;;;;;5.43;3.93;;;;;;;;;;5061994;27;89380;-61
2023/08/05 05:55:17;;;;;;;7.60;4.63;;;;;;;;;;5061209;27;89052;-61
2023/08/05 05:57:46;;;;;;;5.60;3.57;;;;;;;;;;5060251;27;88799;-61
2023/08/05 06:00:15;;;;;;;6.50;3.90;;;;;;;;;;5061735;27;87515;-61
2023/08/05 06:02:44;;;;;;;6.93;3.60;;;;;;;;;;5080191;27;89719;-61
2023/08/05 06:05:14;;;;;;;5.43;3.73;;;;;;;;;;5071110;27;89057;-61
2023/08/05 06:07:42;;;;;;;3.90;3.27;;;;;;;;;;5089846;27;88948;-61
2023/08/05 06:10:11;;;;;;;6.13;4.00;;;;;;;;;;5087588;27;87270;-61
2023/08/05 06:12:39;;;;;;;5.53;3.27;;;;;;;;;;5087029;27;89728;-61
2023/08/05 06:15:08;;;;;;;5.37;4.13;;;;;;;;;;5081725;27;89879;-61
2023/08/05 06:17:37;;;;;;;6.60;3.40;;;;;;;;;;5087685;27;89410;-60
2023/08/05 06:20:06;;;;;;;7.23;3.50;;;;;;;;;;5084445;27;87563;-60
2023/08/05 06:22:36;;;;;;;6.93;4.23;;;;;;;;;;5086511;27;89544;-60
2023/08/05 06:25:05;;;;;;;5.60;3.53;;;;;;;;;;5078802;27;89234;-60
2023/08/05 06:27:33;;;;;;;6.03;3.73;;;;;;;;;;5076267;27;88938;-61
2023/08/05 06:30:02;;;;;;;5.13;3.40;;;;;;;;;;5090880;27;87650;-61
2023/08/05 06:32:30;;;;;;;5.33;3.87;;;;;;;;;;5085451;27;89495;-61
2023/08/05 06:34:59;;;;;;;4.53;3.03;;;;;;;;;;5084588;27;88966;-64
2023/08/05 06:37:27;;;;;;;4.03;3.53;;;;;;;;;;5089746;27;88017;-62
2023/08/05 06:39:57;;;;;;;5.27;3.40;;;;;;;;;;5080504;27;88024;-61
2023/08/05 06:42:26;;;;;;;3.57;2.83;;;;;;;;;;5092318;27;89828;-66
2023/08/05 06:44:55;;;;;;;5.00;3.17;;;;;;;;;;5092124;27;89070;-62
2023/08/05 06:47:30;;;;;;;5.10;3.30;;;;;;;;;;5080064;27;88921;-65
2023/08/05 06:50:00;;;;;;;5.10;2.77;;;;;;;;;;5077848;27;88554;-64
2023/08/05 06:52:28;;;;;;;4.97;2.60;;;;;;;;;;5080632;27;88806;-64
2023/08/05 06:55:01;;;;;;;6.07;3.07;;;;;;;;;;5092135;27;89119;-64
2023/08/05 06:57:30;;;;;;;5.40;2.80;;;;;;;;;;5083849;27;87840;-64
2023/08/05 06:59:59;;;;;;;3.53;2.70;;;;;;;;;;5077346;27;87626;-64
2023/08/05 07:02:28;;;;;;;5.47;3.07;;;;;;;;;;5071424;27;89748;-64
2023/08/05 07:04:56;;;;;;;4.23;2.83;;;;;;;;;;5079605;27;89718;-64
2023/08/05 07:07:25;;;;;;;5.00;3.70;;;;;;;;;;5077262;27;89749;-64
2023/08/05 07:10:00;;;;;;;5.07;3.17;;;;;;;;;;5085441;27;88649;-64
2023/08/05 07:12:30;;;;;;;4.93;3.20;;;;;;;;;;5079333;27;88582;-64
2023/08/05 07:14:59;;;;;;;4.83;3.10;;;;;;;;;;5082797;27;87896;-65
2023/08/05 07:17:28;;;;;;;3.83;3.07;;;;;;;;;;5081049;27;88940;-63
2023/08/05 07:19:56;;;;;;;5.93;2.90;;;;;;;;;;5084385;27;87593;-63
2023/08/05 07:22:26;;;;;;;4.60;2.83;;;;;;;;;;5082629;27;90956;-63
2023/08/05 07:24:55;;;;;;;8.60;3.40;;;;;;;;;;5078748;27;89046;-63
2023/08/05 07:27:24;;;;;;;4.83;3.20;;;;;;;;;;5084870;27;87756;-63
2023/08/05 07:29:54;;;;;;;4.03;2.73;;;;;;;;;;5079545;27;88441;-63
2023/08/05 07:32:23;;;;;;;4.90;2.80;;;;;;;;;;5101416;27;89323;-64
2023/08/05 07:34:55;;;;;;;4.60;2.83;;;;;;;;;;5082944;27;89233;-63
2023/08/05 07:37:24;;;;;;;5.50;3.10;;;;;;;;;;5094413;27;87965;-64
2023/08/05 07:39:53;;;;;;;5.27;2.83;;;;;;;;;;5096232;27;88290;-63
2023/08/05 07:42:24;;;;;;;3.97;2.73;;;;;;;;;;5082951;27;89873;-63
2023/08/05 07:44:53;;;;;;;5.33;2.80;;;;;;;;;;5076959;27;88683;-63
2023/08/05 07:47:23;;;;;;;6.93;2.60;;;;;;;;;;5088076;27;88986;-63
2023/08/05 07:49:52;;;;;;;4.30;3.33;;;;;;;;;;5079809;27;87841;-63
2023/08/05 07:52:21;;;;;;;3.97;2.70;;;;;;;;;;5082270;27;88506;-63
2023/08/05 07:54:49;;;;;;;3.10;2.43;;;;;;;;;;5091266;27;91493;-63
2023/08/05 07:57:18;;;;;;;4.30;3.00;;;;;;;;;;5091652;27;89700;-63
2023/08/05 07:59:46;;;;;;;5.40;2.93;;;;;;;;;;5088319;27;87699;-63
2023/08/05 08:02:15;;;;;;;4.80;3.03;;;;;;;;;;5092743;27;90081;-63
2023/08/05 08:04:47;;;;;;;4.73;3.30;;;;;;;;;;5095883;27;89068;-63
2023/08/05 08:07:15;;;;;;;4.00;2.40;;;;;;;;;;5086170;27;88834;-63
2023/08/05 08:09:44;;;;;;;4.03;2.60;;;;;;;;;;5089939;27;88362;-63
2023/08/05 08:12:13;;;;;;;6.97;2.90;;;;;;;;;;5081099;27;90109;-63
2023/08/05 08:14:41;;;;;;;2.37;2.10;;;;;;;;;;5098076;27;89174;-64
2023/08/05 08:17:10;;;;;;;3.33;2.60;;;;;;;;;;5092508;27;89016;-57
2023/08/05 08:19:38;;;;;;;3.57;2.43;;;;;;;;;;5078425;27;88160;-57
2023/08/05 08:22:08;;;;;;;3.83;2.90;;;;;;;;;;5079279;27;89384;-57
2023/08/05 08:24:37;;;;;;;3.37;2.57;;;;;;;;;;5060597;27;89402;-57
2023/08/05 08:27:06;;;;;;;3.30;2.80;;;;;;;;;;5073206;27;89078;-57
2023/08/05 08:29:34;;;;;;;3.20;1.73;;;;;;;;;;5079303;27;87758;-58
2023/08/05 08:32:03;;;;;;;4.93;1.87;;;;;;;;;;5073052;27;89749;-58
2023/08/05 08:34:31;;;;;;;5.90;2.80;;;;;;;;;;5071208;27;89166;-57
2023/08/05 08:37:00;;;;;;;2.90;2.03;;;;;;;;;;5076434;27;90077;-64
2023/08/05 08:39:30;;;;;;;3.13;2.27;;;;;;;;;;5067688;27;88902;-64
2023/08/05 08:41:59;;;;;;;2.63;2.13;;;;;;;;;;5071550;27;89420;-64
2023/08/05 08:44:27;;;;;;;4.53;2.60;;;;;;;;;;5077352;27;89889;-64
2023/08/05 08:46:56;;;;;;;3.23;2.50;;;;;;;;;;5065678;27;89823;-61
2023/08/05 08:49:24;;;;;;;3.00;2.07;;;;;;;;;;5066776;27;87749;-64
2023/08/05 08:51:53;;;;;;;2.27;2.07;;;;;;;;;;5070945;27;89788;-64
2023/08/05 08:54:22;;;;;;;2.90;2.00;;;;;;;;;;5073026;27;89361;-63
2023/08/05 08:56:51;;;;;;;3.57;2.70;;;;;;;;;;5075820;27;89272;-61
2023/08/05 08:59:20;;;;;;;6.40;2.10;;;;;;;;;;5064312;27;87738;-62
2023/08/05 09:01:48;;;;;;;3.67;2.10;;;;;;;;;;5072295;27;89373;-64
2023/08/05 09:04:17;;;;;;;2.67;2.33;;;;;;;;;;5077922;27;87874;-64
2023/08/05 09:06:46;;;;;;;2.93;2.20;;;;;;;;;;5071866;27;88716;-65
2023/08/05 09:09:15;;;;;;;2.70;1.83;;;;;;;;;;5079077;27;87904;-65
2023/08/05 09:11:43;;;;;;;3.10;2.57;;;;;;;;;;5078025;27;90021;-65
2023/08/05 09:14:17;;;;;;;3.80;2.80;;;;;;;;;;5069076;27;89190;-65
2023/08/05 09:16:57;;;;;;;3.80;2.23;;;;;;;;;;5070660;27;88893;-59
2023/08/05 09:19:26;;;;;;;3.53;2.70;;;;;;;;;;5071494;27;87873;-64
2023/08/05 09:21:55;;;;;;;4.77;2.80;;;;;;;;;;5070073;27;89899;-65
2023/08/05 09:24:23;;;;;;;3.70;2.67;;;;;;;;;;5067993;27;89121;-64
2023/08/05 09:26:56;;;;;;;3.63;2.37;;;;;;;;;;5067914;27;88890;-62
2023/08/05 09:29:27;;;;;;;10.67;2.93;;;;;;;;;;5069026;27;89014;-64
2023/08/05 09:31:55;;;;;;;8.03;4.03;;;;;;;;;;5065733;27;89708;-66
2023/08/05 09:34:28;;;;;;;12.40;3.93;;;;;;;;;;5068678;27;90202;-65
2023/08/05 09:36:56;;;;;;;5.90;3.83;;;;;;;;;;5065413;27;89810;-66
2023/08/05 09:39:26;;;;;;;7.87;3.97;;;;;;;;;;5075968;27;87619;-66
2023/08/05 09:41:56;;;;;;;8.50;3.50;;;;;;;;;;5078788;27;89676;-66
2023/08/05 09:44:25;;;;;;;5.93;3.37;;;;;;;;;;5077699;27;89121;-66
2023/08/05 09:46:56;;;;;;;11.23;3.80;;;;;;;;;;5075398;27;88895;-65
2023/08/05 09:49:25;;;;;;;4.20;2.97;;;;;;;;;;5078746;27;87586;-65
2023/08/05 09:51:54;;;;;;;6.57;3.67;;;;;;;;;;5073977;27;88466;-66
2023/08/05 09:54:27;;;;;;;11.30;3.70;;;;;;;;;;5067517;27;88024;-65
2023/08/05 09:56:57;;;;;;;4.03;2.90;;;;;;;;;;5058452;27;88803;-66
2023/08/05 09:59:26;;;;;;;5.10;2.73;;;;;;;;;;5078295;27;87965;-66
2023/08/05 10:01:56;;;;;;;4.93;3.20;;;;;;;;;;5077994;27;89687;-65
2023/08/05 10:04:26;;;;;;;6.17;3.33;;;;;;;;;;5075084;27;89319;-65
2023/08/05 10:06:54;;;;;;;6.57;3.50;;;;;;;;;;5072896;27;87997;-65
2023/08/05 10:09:23;;;;;;;6.27;2.50;;;;;;;;;;5066902;27;87521;-65
2023/08/05 10:11:52;;;;;;;5.17;3.47;;;;;;;;;;5070395;27;90654;-64
2023/08/05 10:14:21;;;;;;;5.30;3.40;;;;;;;;;;5079271;27;89400;-65
2023/08/05 10:16:49;;;;;;;6.57;3.70;;;;;;;;;;5080709;27;89056;-64
2023/08/05 10:19:29;;;;;;;10.07;3.97;;;;;;;;;;5069797;27;88290;-64
2023/08/05 10:22:08;;;;;;;7.13;4.17;;;;;;;;;;5077685;27;90107;-64
2023/08/05 10:24:55;;;;;;;6.53;3.77;;;;;;;;;;5077340;27;89955;-65
2023/08/05 10:27:36;;;;;;;6.33;4.00;;;;;;;;;;5062610;27;89679;-65
2023/08/05 10:30:08;;;;;;;6.23;4.30;;;;;;;;;;5078956;27;87624;-65
2023/08/05 10:32:37;;;;;;;5.77;3.70;;;;;;;;;;5072939;27;89336;-65
2023/08/05 10:35:24;;;;;;;6.23;3.60;;;;;;;;;;5079358;27;89069;-65
2023/08/05 10:38:05;;;;;;;6.33;4.73;;;;;;;;;;5074781;27;88973;-65
2023/08/05 10:40:56;;;;;;;11.33;4.23;;;;;;;;;;5060778;27;87624;-65
2023/08/05 10:43:30;;;;;;;7.50;4.10;;;;;;;;;;5057884;27;89626;-66
2023/08/05 10:45:59;;;;;;;7.47;4.43;;;;;;;;;;5061127;27;89174;-66
2023/08/05 10:48:29;;;;;;;6.17;4.57;;;;;;;;;;5057837;27;88881;-66
2023/08/05 10:50:58;;;;;;;5.17;3.67;;;;;;;;;;5057922;27;88066;-65
2023/08/05 10:53:28;;;;;;;9.23;4.57;;;;;;;;;;5059051;27;91243;-65
2023/08/05 10:55:57;;;;;;;5.20;3.83;;;;;;;;;;5057856;27;89058;-65
2023/08/05 10:58:26;;;;;;;9.03;4.77;;;;;;;;;;5058163;27;89035;-65
2023/08/05 11:00:58;;;;;;;9.07;4.17;;;;;;;;;;5057993;27;87486;-65
2023/08/05 11:03:33;;;;;;;8.47;4.27;;;;;;;;;;5058344;27;89709;-65
2023/08/05 11:06:03;;;;;;;5.43;3.63;;;;;;;;;;5057981;27;89153;-65
2023/08/05 11:08:33;;;;;;;11.00;4.10;;;;;;;;;;5058200;27;88784;-65
2023/08/05 11:11:02;;;;;;;6.30;3.77;;;;;;;;;;5058204;27;87596;-65
2023/08/05 11:13:34;;;;;;;6.13;3.70;;;;;;;;;;5058104;27;89535;-65
2023/08/05 11:16:12;;;;;;;6.63;3.50;;;;;;;;;;5057063;27;90032;-65
2023/08/05 11:18:41;;;;;;;6.40;3.60;;;;;;;;;;5056717;27;89719;-65
2023/08/05 11:21:11;;;;;;;9.13;3.67;;;;;;;;;;5057451;27;87874;-65
2023/08/05 11:23:41;;;;;;;5.57;3.40;;;;;;;;;;5057145;27;88580;-65
2023/08/05 11:26:10;;;;;;;6.83;3.63;;;;;;;;;;5056910;27;89058;-65
2023/08/05 11:28:42;;;;;;;9.33;3.27;;;;;;;;;;5056345;27;87722;-65
2023/08/05 11:31:11;;;;;;;4.83;3.23;;;;;;;;;;5056677;27;87703;-65
2023/08/05 11:33:42;;;;;;;7.97;3.60;;;;;;;;;;5057773;27;89831;-65
2023/08/05 11:36:11;;;;;;;4.43;3.17;;;;;;;;;;5057161;27;89460;-65
2023/08/05 11:38:42;;;;;;;9.80;3.53;;;;;;;;;;5057755;27;88815;-65
2023/08/05 11:41:11;;;;;;;6.77;2.83;;;;;;;;;;5057461;27;87998;-65
2023/08/05 11:43:39;;;;;;;8.63;4.20;;;;;;;;;;5056897;27;89693;-65
2023/08/05 11:46:08;;;;;;;5.07;4.37;;;;;;;;;;5057751;27;89106;-65
2023/08/05 11:48:37;;;;;;;6.10;3.67;;;;;;;;;;5057153;27;87787;-65
2023/08/05 11:51:05;;;;;;;7.47;3.57;;;;;;;;;;5057090;27;87926;-65
2023/08/05 11:53:34;;;;;;;6.57;4.00;;;;;;;;;;5057395;27;89627;-65
2023/08/05 11:56:04;;;;;;;6.33;4.00;;;;;;;;;;5057677;27;89458;-65
2023/08/05 11:58:34;;;;;;;6.40;3.43;;;;;;;;;;5060563;27;88607;-65
2023/08/05 12:01:04;;;;;;;5.80;3.30;;;;;;;;;;5060582;27;87575;-65
2023/08/05 12:03:33;;;;;;;5.00;3.53;;;;;;;;;;5060445;27;89688;-65
2023/08/05 12:06:02;;;;;;;5.20;3.37;;;;;;;;;;5060613;27;90727;-65
2023/08/05 12:08:38;;;;;;;4.83;2.77;;;;;;;;;;5060065;27;89686;-65
2023/08/05 12:11:08;;;;;;;5.13;3.17;;;;;;;;;;5060726;27;87645;-65
2023/08/05 12:13:37;;;;;;;6.10;3.40;;;;;;;;;;5060229;27;88332;-65
2023/08/05 12:16:14;;;;;;;3.97;3.10;;;;;;;;;;5060135;27;89734;-65
2023/08/05 12:18:43;;;;;;;5.47;3.30;;;;;;;;;;5059914;27;88854;-65
2023/08/05 12:21:14;;;;;;;4.03;2.87;;;;;;;;;;5060942;27;87625;-65
2023/08/05 12:23:42;;;;;;;4.13;3.30;;;;;;;;;;5060365;27;89730;-65
2023/08/05 12:26:15;;;;;;;11.70;4.30;;;;;;;;;;5061057;27;91196;-66
2023/08/05 12:28:44;;;;;;;6.90;3.90;;;;;;;;;;5061420;27;88845;-65
2023/08/05 12:31:14;;;;;;;6.60;4.40;;;;;;;;;;5060306;27;89275;-66
2023/08/05 12:33:43;;;;;;;6.47;3.77;;;;;;;;;;5059314;27;89609;-65
2023/08/05 12:36:12;;;;;;;8.20;3.97;;;;;;;;;;5063708;27;89323;-65
2023/08/05 12:38:41;;;;;;;6.37;3.83;;;;;;;;;;5080326;27;88853;-65
2023/08/05 12:41:11;;;;;;;5.97;3.77;;;;;;;;;;5080237;27;87494;-65
2023/08/05 12:43:41;;;;;;;4.33;3.27;;;;;;;;;;5080258;27;88536;-65
2023/08/05 12:46:10;;;;;;;7.87;3.87;;;;;;;;;;5080328;27;88047;-65
2023/08/05 12:48:39;;;;;;;4.97;3.40;;;;;;;;;;5080237;27;90595;-65
2023/08/05 12:51:08;;;;;;;7.57;3.80;;;;;;;;;;5080330;27;87624;-65
2023/08/05 12:53:43;;;;;;;5.50;3.63;;;;;;;;;;5080056;27;89641;-65
2023/08/05 12:56:12;;;;;;;3.70;2.93;;;;;;;;;;5079638;27;89919;-65
2023/08/05 12:58:42;;;;;;;5.40;4.37;;;;;;;;;;5080373;27;89865;-65
2023/08/05 13:01:10;;;;;;;4.80;3.40;;;;;;;;;;5080532;27;87776;-65
2023/08/05 13:03:39;;;;;;;5.47;3.90;;;;;;;;;;5079617;27;89741;-65
2023/08/05 13:06:08;;;;;;;6.17;4.13;;;;;;;;;;5079961;27;88786;-65
2023/08/05 13:08:37;;;;;;;7.50;3.10;;;;;;;;;;5079938;27;87862;-65
2023/08/05 13:11:05;;;;;;;5.13;3.67;;;;;;;;;;5079831;27;87482;-65
2023/08/05 13:13:45;;;;;;;7.97;3.30;;;;;;;;;;5080744;27;89237;-65
2023/08/05 13:16:13;;;;;;;5.67;4.27;;;;;;;;;;5080082;27;89059;-65
2023/08/05 13:18:42;;;;;;;5.10;3.83;;;;;;;;;;5080055;27;88813;-65
2023/08/05 13:21:11;;;;;;;4.83;3.60;;;;;;;;;;5080756;27;88535;-65
2023/08/05 13:23:41;;;;;;;6.03;3.97;;;;;;;;;;5080673;27;88548;-65
2023/08/05 13:26:09;;;;;;;8.43;3.80;;;;;;;;;;5088414;27;89168;-65
2023/08/05 13:28:38;;;;;;;5.70;3.60;;;;;;;;;;5090181;27;88938;-65
2023/08/05 13:31:09;;;;;;;6.20;4.00;;;;;;;;;;5088067;27;87623;-65
2023/08/05 13:33:39;;;;;;;6.80;3.40;;;;;;;;;;5083276;27;90205;-65
2023/08/05 13:36:08;;;;;;;4.57;3.33;;;;;;;;;;5079477;27;87801;-65
2023/08/05 13:38:37;;;;;;;3.20;2.83;;;;;;;;;;5080012;27;88831;-65
2023/08/05 13:41:06;;;;;;;5.40;3.67;;;;;;;;;;5080028;27;87433;-65
2023/08/05 13:43:37;;;;;;;4.30;3.43;;;;;;;;;;5079222;27;88597;-65
2023/08/05 13:46:06;;;;;;;5.17;3.60;;;;;;;;;;5079147;27;90101;-65
2023/08/05 13:48:37;;;;;;;5.57;3.20;;;;;;;;;;5078890;27;89873;-65
2023/08/05 13:51:07;;;;;;;6.17;3.87;;;;;;;;;;5078972;27;87443;-65
2023/08/05 13:53:38;;;;;;;5.00;3.37;;;;;;;;;;5077811;27;88652;-65
2023/08/05 13:56:06;;;;;;;4.07;3.47;;;;;;;;;;5078351;27;88864;-65
2023/08/05 13:58:35;;;;;;;5.07;3.37;;;;;;;;;;5078939;27;88711;-65
2023/08/05 14:01:13;;;;;;;4.53;2.97;;;;;;;;;;5079332;27;87655;-65
2023/08/05 14:03:43;;;;;;;7.43;3.13;;;;;;;;;;5079217;27;89537;-65
2023/08/05 14:06:12;;;;;;;4.67;3.57;;;;;;;;;;5079006;27;89121;-65
2023/08/05 14:08:41;;;;;;;4.33;3.17;;;;;;;;;;5078487;27;87851;-65
2023/08/05 14:11:10;;;;;;;5.77;3.33;;;;;;;;;;5078522;27;88031;-65
2023/08/05 14:13:38;;;;;;;4.20;2.93;;;;;;;;;;5079428;27;89582;-65
2023/08/05 14:16:07;;;;;;;4.30;2.87;;;;;;;;;;5079308;27;87852;-65
2023/08/05 14:18:35;;;;;;;4.00;2.50;;;;;;;;;;5078577;27;88826;-65
2023/08/05 14:21:06;;;;;;;3.90;2.93;;;;;;;;;;5078978;27;87352;-65
2023/08/05 14:23:34;;;;;;;4.13;2.77;;;;;;;;;;5079292;27;89548;-65
2023/08/05 14:26:03;;;;;;;3.57;2.87;;;;;;;;;;5078861;27;89074;-65
2023/08/05 14:28:32;;;;;;;3.80;3.03;;;;;;;;;;5077955;27;88924;-65
2023/08/05 14:31:05;;;;;;;4.87;2.90;;;;;;;;;;5078443;27;87505;-65
2023/08/05 14:33:34;;;;;;;5.37;3.10;;;;;;;;;;5078218;27;89672;-62
2023/08/05 14:36:11;;;;;;;5.80;2.97;;;;;;;;;;5078285;27;88862;-59
2023/08/05 14:38:59;;;;;;;4.40;2.83;;;;;;;;;;5098491;27;89536;-63
2023/08/05 14:41:31;;;;;;;3.17;2.23;;;;;;;;;;5081760;27;87734;-61
2023/08/05 14:44:00;;;;;;;3.13;2.60;;;;;;;;;;5077445;27;89894;-63
2023/08/05 14:46:28;;;;;;;3.53;2.30;;;;;;;;;;5079128;27;92091;-63